Brant, New York
Current Conditions -  °F | °C
As of 9:53 AM on Thursday 18 Dec 2014 (Local Time) from KDKK Reporting Station
Overcast Overcast  
Wind Chill: 25°   Ceiling: 1800
Heat Index: 32°   Visibility: 10mi
Dew Point: 26°   Wind: 8mph
Humidity: 79%   Direction: 280°W
Pressure: 30.13"   Gusts: NA
Location:  42.59°N, 79.02°W
Report Text: KDKK 181453Z AUTO 28007KT 10SM OVC018 00/M03 A3013 RMK AO2 SLP212 T00001033 53005
Loading
Personal Weather Stations






























Interactive Weather Map New forecast layout! Learn more

10-Day Weather Forecast

Advertisements
Track Severe Weather on mobile